sensor_id;sensor_type;location;lat;lon;timestamp;P1;durP1;ratioP1;P2;durP2;ratioP2
18503;SDS011;9381;54.244;10.074;2023-04-25T00:02:19;15.43;;;4.72;;
18503;SDS011;9381;54.244;10.074;2023-04-25T00:07:19;21.30;;;4.70;;
18503;SDS011;9381;54.244;10.074;2023-04-25T00:12:19;17.87;;;4.43;;
18503;SDS011;9381;54.244;10.074;2023-04-25T00:17:20;20.33;;;5.97;;
18503;SDS011;9381;54.244;10.074;2023-04-25T00:22:21;22.47;;;5.43;;
18503;SDS011;9381;54.244;10.074;2023-04-25T00:27:22;17.30;;;4.27;;
18503;SDS011;9381;54.244;10.074;2023-04-25T00:32:22;23.17;;;4.80;;
18503;SDS011;9381;54.244;10.074;2023-04-25T00:37:22;24.55;;;5.22;;
18503;SDS011;9381;54.244;10.074;2023-04-25T00:42:23;25.77;;;5.43;;
18503;SDS011;9381;54.244;10.074;2023-04-25T00:47:25;23.23;;;4.97;;
18503;SDS011;9381;54.244;10.074;2023-04-25T00:52:25;18.33;;;5.57;;
18503;SDS011;9381;54.244;10.074;2023-04-25T00:57:25;22.37;;;6.03;;
18503;SDS011;9381;54.244;10.074;2023-04-25T01:02:26;22.37;;;6.03;;
18503;SDS011;9381;54.244;10.074;2023-04-25T01:07:27;19.83;;;6.00;;
18503;SDS011;9381;54.244;10.074;2023-04-25T01:12:27;21.55;;;5.43;;
18503;SDS011;9381;54.244;10.074;2023-04-25T01:17:28;20.77;;;6.20;;
18503;SDS011;9381;54.244;10.074;2023-04-25T01:22:29;25.40;;;5.40;;
18503;SDS011;9381;54.244;10.074;2023-04-25T01:27:29;16.53;;;4.90;;
18503;SDS011;9381;54.244;10.074;2023-04-25T01:32:30;22.67;;;5.60;;
18503;SDS011;9381;54.244;10.074;2023-04-25T01:37:38;30.63;;;6.93;;
18503;SDS011;9381;54.244;10.074;2023-04-25T01:42:42;27.93;;;5.17;;
18503;SDS011;9381;54.244;10.074;2023-04-25T01:47:44;19.97;;;5.20;;
18503;SDS011;9381;54.244;10.074;2023-04-25T01:52:48;28.80;;;5.83;;
18503;SDS011;9381;54.244;10.074;2023-04-25T01:57:49;24.20;;;5.47;;
18503;SDS011;9381;54.244;10.074;2023-04-25T02:02:49;22.52;;;5.70;;
18503;SDS011;9381;54.244;10.074;2023-04-25T02:07:50;20.77;;;4.40;;
18503;SDS011;9381;54.244;10.074;2023-04-25T02:12:50;19.80;;;5.33;;
18503;SDS011;9381;54.244;10.074;2023-04-25T02:17:51;23.90;;;6.40;;
18503;SDS011;9381;54.244;10.074;2023-04-25T02:22:54;26.43;;;5.40;;
18503;SDS011;9381;54.244;10.074;2023-04-25T02:27:54;25.65;;;6.03;;
18503;SDS011;9381;54.244;10.074;2023-04-25T02:32:55;25.67;;;5.50;;
18503;SDS011;9381;54.244;10.074;2023-04-25T02:37:55;21.90;;;6.80;;
18503;SDS011;9381;54.244;10.074;2023-04-25T02:42:55;25.30;;;6.15;;
18503;SDS011;9381;54.244;10.074;2023-04-25T02:47:55;26.05;;;5.70;;
18503;SDS011;9381;54.244;10.074;2023-04-25T02:52:56;25.05;;;5.53;;
18503;SDS011;9381;54.244;10.074;2023-04-25T02:57:56;21.25;;;4.75;;
18503;SDS011;9381;54.244;10.074;2023-04-25T03:02:56;23.80;;;5.50;;
18503;SDS011;9381;54.244;10.074;2023-04-25T03:07:57;19.73;;;5.47;;
18503;SDS011;9381;54.244;10.074;2023-04-25T03:12:57;19.02;;;5.57;;
18503;SDS011;9381;54.244;10.074;2023-04-25T03:17:57;18.83;;;5.63;;
18503;SDS011;9381;54.244;10.074;2023-04-25T03:22:57;18.50;;;4.85;;
18503;SDS011;9381;54.244;10.074;2023-04-25T03:27:58;21.13;;;5.20;;
18503;SDS011;9381;54.244;10.074;2023-04-25T03:32:58;17.58;;;5.45;;
18503;SDS011;9381;54.244;10.074;2023-04-25T03:37:59;22.37;;;5.07;;
18503;SDS011;9381;54.244;10.074;2023-04-25T03:42:59;25.67;;;5.50;;
18503;SDS011;9381;54.244;10.074;2023-04-25T03:47:59;28.83;;;6.20;;
18503;SDS011;9381;54.244;10.074;2023-04-25T03:53:00;21.33;;;5.57;;
18503;SDS011;9381;54.244;10.074;2023-04-25T03:58:00;28.97;;;4.63;;
18503;SDS011;9381;54.244;10.074;2023-04-25T04:03:01;21.83;;;5.07;;
18503;SDS011;9381;54.244;10.074;2023-04-25T04:08:01;19.80;;;5.73;;
18503;SDS011;9381;54.244;10.074;2023-04-25T04:13:01;19.63;;;5.22;;
18503;SDS011;9381;54.244;10.074;2023-04-25T04:18:02;20.02;;;5.55;;
18503;SDS011;9381;54.244;10.074;2023-04-25T04:23:02;21.07;;;4.60;;
18503;SDS011;9381;54.244;10.074;2023-04-25T04:28:03;19.20;;;4.60;;
18503;SDS011;9381;54.244;10.074;2023-04-25T04:33:03;19.23;;;4.67;;
18503;SDS011;9381;54.244;10.074;2023-04-25T04:38:03;20.65;;;4.13;;
18503;SDS011;9381;54.244;10.074;2023-04-25T04:43:04;16.57;;;4.50;;
18503;SDS011;9381;54.244;10.074;2023-04-25T04:48:07;17.90;;;5.10;;
18503;SDS011;9381;54.244;10.074;2023-04-25T04:53:08;14.67;;;4.80;;
18503;SDS011;9381;54.244;10.074;2023-04-25T04:58:08;13.35;;;4.00;;
18503;SDS011;9381;54.244;10.074;2023-04-25T05:03:09;16.10;;;4.27;;
18503;SDS011;9381;54.244;10.074;2023-04-25T05:08:09;19.60;;;4.88;;
18503;SDS011;9381;54.244;10.074;2023-04-25T05:13:09;12.18;;;3.67;;
18503;SDS011;9381;54.244;10.074;2023-04-25T05:18:10;16.17;;;4.10;;
18503;SDS011;9381;54.244;10.074;2023-04-25T05:23:10;14.10;;;3.50;;
18503;SDS011;9381;54.244;10.074;2023-04-25T05:28:11;12.03;;;4.07;;
18503;SDS011;9381;54.244;10.074;2023-04-25T05:33:12;20.27;;;4.23;;
18503;SDS011;9381;54.244;10.074;2023-04-25T05:38:13;21.07;;;4.57;;
18503;SDS011;9381;54.244;10.074;2023-04-25T05:43:13;18.70;;;4.68;;
18503;SDS011;9381;54.244;10.074;2023-04-25T05:48:13;12.68;;;3.90;;
18503;SDS011;9381;54.244;10.074;2023-04-25T05:53:14;19.93;;;4.37;;
18503;SDS011;9381;54.244;10.074;2023-04-25T05:58:14;13.80;;;4.73;;
18503;SDS011;9381;54.244;10.074;2023-04-25T06:03:15;16.13;;;4.57;;
18503;SDS011;9381;54.244;10.074;2023-04-25T06:08:15;18.63;;;4.40;;
18503;SDS011;9381;54.244;10.074;2023-04-25T06:13:16;20.77;;;4.50;;
18503;SDS011;9381;54.244;10.074;2023-04-25T06:18:16;19.85;;;4.97;;
18503;SDS011;9381;54.244;10.074;2023-04-25T06:23:17;20.47;;;4.70;;
18503;SDS011;9381;54.244;10.074;2023-04-25T06:28:18;18.97;;;4.07;;
18503;SDS011;9381;54.244;10.074;2023-04-25T06:33:19;19.20;;;4.30;;
18503;SDS011;9381;54.244;10.074;2023-04-25T06:38:20;20.87;;;5.10;;
18503;SDS011;9381;54.244;10.074;2023-04-25T06:43:20;24.03;;;4.77;;
18503;SDS011;9381;54.244;10.074;2023-04-25T06:48:20;14.53;;;4.07;;
18503;SDS011;9381;54.244;10.074;2023-04-25T06:53:21;13.10;;;3.63;;
18503;SDS011;9381;54.244;10.074;2023-04-25T06:58:21;17.60;;;4.38;;
18503;SDS011;9381;54.244;10.074;2023-04-25T07:03:22;12.20;;;3.60;;
18503;SDS011;9381;54.244;10.074;2023-04-25T07:08:22;17.17;;;3.80;;
18503;SDS011;9381;54.244;10.074;2023-04-25T07:13:22;19.63;;;4.75;;
18503;SDS011;9381;54.244;10.074;2023-04-25T07:18:22;19.45;;;3.83;;
18503;SDS011;9381;54.244;10.074;2023-04-25T07:23:23;14.73;;;3.60;;
18503;SDS011;9381;54.244;10.074;2023-04-25T07:28:23;20.75;;;3.90;;
18503;SDS011;9381;54.244;10.074;2023-04-25T07:33:23;21.55;;;3.60;;
18503;SDS011;9381;54.244;10.074;2023-04-25T07:38:24;19.30;;;4.00;;
18503;SDS011;9381;54.244;10.074;2023-04-25T07:43:24;16.73;;;4.10;;
18503;SDS011;9381;54.244;10.074;2023-04-25T07:48:24;18.08;;;4.00;;
18503;SDS011;9381;54.244;10.074;2023-04-25T07:53:24;18.20;;;4.03;;
18503;SDS011;9381;54.244;10.074;2023-04-25T07:58:25;18.48;;;4.93;;
18503;SDS011;9381;54.244;10.074;2023-04-25T08:03:25;16.10;;;3.90;;
18503;SDS011;9381;54.244;10.074;2023-04-25T08:08:26;14.40;;;4.10;;
18503;SDS011;9381;54.244;10.074;2023-04-25T08:13:26;14.27;;;4.10;;
18503;SDS011;9381;54.244;10.074;2023-04-25T08:18:26;16.63;;;3.28;;
18503;SDS011;9381;54.244;10.074;2023-04-25T08:23:27;10.48;;;2.85;;
18503;SDS011;9381;54.244;10.074;2023-04-25T08:28:27;19.33;;;3.43;;
18503;SDS011;9381;54.244;10.074;2023-04-25T08:33:28;11.03;;;2.67;;
18503;SDS011;9381;54.244;10.074;2023-04-25T08:38:30;11.40;;;2.97;;
18503;SDS011;9381;54.244;10.074;2023-04-25T08:43:30;9.77;;;2.88;;
18503;SDS011;9381;54.244;10.074;2023-04-25T08:48:33;10.90;;;3.30;;
18503;SDS011;9381;54.244;10.074;2023-04-25T08:53:36;9.40;;;2.83;;
18503;SDS011;9381;54.244;10.074;2023-04-25T08:58:36;16.70;;;3.43;;
18503;SDS011;9381;54.244;10.074;2023-04-25T09:03:37;20.40;;;4.37;;
18503;SDS011;9381;54.244;10.074;2023-04-25T09:08:37;13.77;;;2.75;;
18503;SDS011;9381;54.244;10.074;2023-04-25T09:13:40;14.53;;;2.87;;
18503;SDS011;9381;54.244;10.074;2023-04-25T09:18:40;15.20;;;3.30;;
18503;SDS011;9381;54.244;10.074;2023-04-25T09:23:41;11.52;;;3.17;;
18503;SDS011;9381;54.244;10.074;2023-04-25T09:28:45;19.90;;;3.70;;
18503;SDS011;9381;54.244;10.074;2023-04-25T09:33:47;13.83;;;3.87;;
18503;SDS011;9381;54.244;10.074;2023-04-25T09:38:47;14.90;;;3.53;;
18503;SDS011;9381;54.244;10.074;2023-04-25T09:43:48;15.93;;;3.38;;
18503;SDS011;9381;54.244;10.074;2023-04-25T09:48:49;14.53;;;3.90;;
18503;SDS011;9381;54.244;10.074;2023-04-25T09:53:50;12.93;;;3.60;;
18503;SDS011;9381;54.244;10.074;2023-04-25T09:58:50;12.40;;;2.80;;
18503;SDS011;9381;54.244;10.074;2023-04-25T10:03:54;10.13;;;2.60;;
18503;SDS011;9381;54.244;10.074;2023-04-25T10:08:57;10.93;;;2.53;;
18503;SDS011;9381;54.244;10.074;2023-04-25T10:13:58;8.90;;;3.13;;
18503;SDS011;9381;54.244;10.074;2023-04-25T10:19:00;8.97;;;2.27;;
18503;SDS011;9381;54.244;10.074;2023-04-25T10:24:01;9.60;;;3.20;;
18503;SDS011;9381;54.244;10.074;2023-04-25T10:29:03;10.87;;;2.30;;
18503;SDS011;9381;54.244;10.074;2023-04-25T10:34:03;8.67;;;2.27;;
18503;SDS011;9381;54.244;10.074;2023-04-25T10:39:05;4.67;;;2.00;;
18503;SDS011;9381;54.244;10.074;2023-04-25T10:44:09;12.43;;;2.40;;
18503;SDS011;9381;54.244;10.074;2023-04-25T10:49:10;9.67;;;2.70;;
18503;SDS011;9381;54.244;10.074;2023-04-25T10:54:10;7.53;;;2.17;;
18503;SDS011;9381;54.244;10.074;2023-04-25T10:59:12;7.07;;;2.33;;
18503;SDS011;9381;54.244;10.074;2023-04-25T11:09:23;13.07;;;2.17;;
18503;SDS011;9381;54.244;10.074;2023-04-25T11:14:26;9.57;;;2.00;;
18503;SDS011;9381;54.244;10.074;2023-04-25T11:19:27;5.87;;;1.80;;
18503;SDS011;9381;54.244;10.074;2023-04-25T11:24:28;8.10;;;2.20;;
18503;SDS011;9381;54.244;10.074;2023-04-25T11:29:30;7.30;;;2.33;;
18503;SDS011;9381;54.244;10.074;2023-04-25T11:34:32;8.70;;;1.93;;
18503;SDS011;9381;54.244;10.074;2023-04-25T11:39:33;7.10;;;2.20;;
18503;SDS011;9381;54.244;10.074;2023-04-25T11:44:34;7.00;;;2.10;;
18503;SDS011;9381;54.244;10.074;2023-04-25T11:49:35;6.93;;;2.10;;
18503;SDS011;9381;54.244;10.074;2023-04-25T11:54:36;8.07;;;2.30;;
18503;SDS011;9381;54.244;10.074;2023-04-25T11:59:37;8.40;;;2.43;;
18503;SDS011;9381;54.244;10.074;2023-04-25T12:04:37;7.28;;;2.13;;
18503;SDS011;9381;54.244;10.074;2023-04-25T12:09:40;6.87;;;2.10;;
18503;SDS011;9381;54.244;10.074;2023-04-25T12:14:41;11.60;;;2.10;;
18503;SDS011;9381;54.244;10.074;2023-04-25T12:19:47;8.37;;;2.17;;
18503;SDS011;9381;54.244;10.074;2023-04-25T12:24:48;10.00;;;2.53;;
18503;SDS011;9381;54.244;10.074;2023-04-25T12:29:52;11.97;;;2.80;;
18503;SDS011;9381;54.244;10.074;2023-04-25T12:34:53;14.00;;;3.10;;
18503;SDS011;9381;54.244;10.074;2023-04-25T12:39:54;8.67;;;2.63;;
18503;SDS011;9381;54.244;10.074;2023-04-25T12:44:55;14.13;;;3.20;;
18503;SDS011;9381;54.244;10.074;2023-04-25T12:49:55;10.73;;;2.25;;
18503;SDS011;9381;54.244;10.074;2023-04-25T12:54:55;11.80;;;2.60;;
18503;SDS011;9381;54.244;10.074;2023-04-25T12:59:56;12.97;;;2.70;;
18503;SDS011;9381;54.244;10.074;2023-04-25T13:04:56;9.93;;;2.90;;
18503;SDS011;9381;54.244;10.074;2023-04-25T13:09:57;10.87;;;2.60;;
18503;SDS011;9381;54.244;10.074;2023-04-25T13:14:57;15.87;;;2.47;;
18503;SDS011;9381;54.244;10.074;2023-04-25T13:19:58;12.70;;;2.40;;
18503;SDS011;9381;54.244;10.074;2023-04-25T13:24:58;9.50;;;2.05;;
18503;SDS011;9381;54.244;10.074;2023-04-25T13:29:58;12.27;;;2.60;;
18503;SDS011;9381;54.244;10.074;2023-04-25T13:34:59;7.43;;;2.23;;
18503;SDS011;9381;54.244;10.074;2023-04-25T13:40:00;9.38;;;2.78;;
18503;SDS011;9381;54.244;10.074;2023-04-25T13:45:02;10.03;;;2.70;;
18503;SDS011;9381;54.244;10.074;2023-04-25T13:50:03;9.63;;;2.37;;
18503;SDS011;9381;54.244;10.074;2023-04-25T13:55:08;11.53;;;2.10;;
18503;SDS011;9381;54.244;10.074;2023-04-25T14:00:09;8.43;;;1.90;;
18503;SDS011;9381;54.244;10.074;2023-04-25T14:05:10;8.47;;;3.00;;
18503;SDS011;9381;54.244;10.074;2023-04-25T14:10:10;9.63;;;1.88;;
18503;SDS011;9381;54.244;10.074;2023-04-25T14:15:11;7.03;;;2.47;;
18503;SDS011;9381;54.244;10.074;2023-04-25T14:20:11;10.40;;;1.90;;
18503;SDS011;9381;54.244;10.074;2023-04-25T14:25:11;12.23;;;2.72;;
18503;SDS011;9381;54.244;10.074;2023-04-25T14:30:12;12.50;;;2.37;;
18503;SDS011;9381;54.244;10.074;2023-04-25T14:35:12;7.30;;;2.50;;
18503;SDS011;9381;54.244;10.074;2023-04-25T14:40:13;7.20;;;1.90;;
18503;SDS011;9381;54.244;10.074;2023-04-25T14:45:15;9.37;;;2.40;;
18503;SDS011;9381;54.244;10.074;2023-04-25T14:50:15;5.47;;;1.93;;
18503;SDS011;9381;54.244;10.074;2023-04-25T14:55:17;11.80;;;2.37;;
18503;SDS011;9381;54.244;10.074;2023-04-25T15:00:17;7.43;;;2.27;;
18503;SDS011;9381;54.244;10.074;2023-04-25T15:05:20;11.93;;;2.70;;
18503;SDS011;9381;54.244;10.074;2023-04-25T15:10:21;14.30;;;3.03;;
18503;SDS011;9381;54.244;10.074;2023-04-25T15:15:22;14.90;;;2.63;;
18503;SDS011;9381;54.244;10.074;2023-04-25T15:20:23;11.60;;;2.73;;
18503;SDS011;9381;54.244;10.074;2023-04-25T15:25:24;10.90;;;2.80;;
18503;SDS011;9381;54.244;10.074;2023-04-25T15:30:25;13.80;;;2.60;;
18503;SDS011;9381;54.244;10.074;2023-04-25T15:35:25;15.60;;;2.77;;
18503;SDS011;9381;54.244;10.074;2023-04-25T15:40:26;7.80;;;2.40;;
18503;SDS011;9381;54.244;10.074;2023-04-25T15:45:26;10.80;;;2.30;;
18503;SDS011;9381;54.244;10.074;2023-04-25T15:50:27;12.63;;;2.97;;
18503;SDS011;9381;54.244;10.074;2023-04-25T15:55:27;10.97;;;2.93;;
18503;SDS011;9381;54.244;10.074;2023-04-25T16:00:28;12.53;;;2.97;;
18503;SDS011;9381;54.244;10.074;2023-04-25T16:05:28;13.63;;;3.30;;
18503;SDS011;9381;54.244;10.074;2023-04-25T16:10:29;13.40;;;2.77;;
18503;SDS011;9381;54.244;10.074;2023-04-25T16:15:29;12.50;;;2.20;;
18503;SDS011;9381;54.244;10.074;2023-04-25T16:20:31;11.90;;;2.60;;
18503;SDS011;9381;54.244;10.074;2023-04-25T16:25:31;10.37;;;2.53;;
18503;SDS011;9381;54.244;10.074;2023-04-25T16:30:32;5.60;;;1.90;;
18503;SDS011;9381;54.244;10.074;2023-04-25T16:35:32;8.17;;;2.10;;
18503;SDS011;9381;54.244;10.074;2023-04-25T16:40:33;6.10;;;1.87;;
18503;SDS011;9381;54.244;10.074;2023-04-25T16:45:33;7.23;;;1.80;;
18503;SDS011;9381;54.244;10.074;2023-04-25T16:50:34;6.37;;;2.30;;
18503;SDS011;9381;54.244;10.074;2023-04-25T16:55:34;11.27;;;2.60;;
18503;SDS011;9381;54.244;10.074;2023-04-25T17:00:35;12.03;;;2.10;;
18503;SDS011;9381;54.244;10.074;2023-04-25T17:05:36;10.53;;;1.93;;
18503;SDS011;9381;54.244;10.074;2023-04-25T17:10:36;14.10;;;2.40;;
18503;SDS011;9381;54.244;10.074;2023-04-25T17:15:36;10.63;;;2.20;;
18503;SDS011;9381;54.244;10.074;2023-04-25T17:20:37;10.73;;;2.63;;
18503;SDS011;9381;54.244;10.074;2023-04-25T17:25:37;11.00;;;2.67;;
18503;SDS011;9381;54.244;10.074;2023-04-25T17:30:38;12.77;;;3.03;;
18503;SDS011;9381;54.244;10.074;2023-04-25T17:35:38;15.13;;;3.67;;
18503;SDS011;9381;54.244;10.074;2023-04-25T17:40:39;9.00;;;2.90;;
18503;SDS011;9381;54.244;10.074;2023-04-25T17:45:39;14.13;;;2.53;;
18503;SDS011;9381;54.244;10.074;2023-04-25T17:50:40;8.77;;;2.37;;
18503;SDS011;9381;54.244;10.074;2023-04-25T17:55:40;6.60;;;2.67;;
18503;SDS011;9381;54.244;10.074;2023-04-25T18:00:42;10.97;;;2.60;;
18503;SDS011;9381;54.244;10.074;2023-04-25T18:05:43;12.63;;;2.77;;
18503;SDS011;9381;54.244;10.074;2023-04-25T18:10:43;9.50;;;3.27;;
18503;SDS011;9381;54.244;10.074;2023-04-25T18:15:44;13.07;;;3.33;;
18503;SDS011;9381;54.244;10.074;2023-04-25T18:20:45;8.57;;;2.87;;
18503;SDS011;9381;54.244;10.074;2023-04-25T18:25:46;11.67;;;2.83;;
18503;SDS011;9381;54.244;10.074;2023-04-25T18:30:46;9.35;;;2.83;;
18503;SDS011;9381;54.244;10.074;2023-04-25T18:35:49;9.70;;;2.17;;
18503;SDS011;9381;54.244;10.074;2023-04-25T18:40:49;9.60;;;2.67;;
18503;SDS011;9381;54.244;10.074;2023-04-25T18:45:49;10.70;;;1.80;;
18503;SDS011;9381;54.244;10.074;2023-04-25T18:50:50;6.70;;;1.83;;
18503;SDS011;9381;54.244;10.074;2023-04-25T18:55:50;8.80;;;1.87;;
18503;SDS011;9381;54.244;10.074;2023-04-25T19:00:51;9.83;;;3.27;;
18503;SDS011;9381;54.244;10.074;2023-04-25T19:05:51;9.50;;;3.33;;
18503;SDS011;9381;54.244;10.074;2023-04-25T19:10:52;10.70;;;4.90;;
18503;SDS011;9381;54.244;10.074;2023-04-25T19:15:53;14.77;;;5.23;;
18503;SDS011;9381;54.244;10.074;2023-04-25T19:20:53;9.27;;;3.20;;
18503;SDS011;9381;54.244;10.074;2023-04-25T19:25:53;14.03;;;3.97;;
18503;SDS011;9381;54.244;10.074;2023-04-25T19:30:54;8.90;;;2.73;;
18503;SDS011;9381;54.244;10.074;2023-04-25T19:35:55;5.83;;;2.50;;
18503;SDS011;9381;54.244;10.074;2023-04-25T19:40:55;7.80;;;2.00;;
18503;SDS011;9381;54.244;10.074;2023-04-25T19:45:56;6.10;;;2.10;;
18503;SDS011;9381;54.244;10.074;2023-04-25T19:50:56;11.97;;;2.27;;
18503;SDS011;9381;54.244;10.074;2023-04-25T19:55:57;15.00;;;2.33;;
18503;SDS011;9381;54.244;10.074;2023-04-25T20:00:57;12.50;;;2.20;;
18503;SDS011;9381;54.244;10.074;2023-04-25T20:05:58;10.57;;;2.50;;
18503;SDS011;9381;54.244;10.074;2023-04-25T20:10:58;10.17;;;2.27;;
18503;SDS011;9381;54.244;10.074;2023-04-25T20:15:59;9.90;;;2.27;;
18503;SDS011;9381;54.244;10.074;2023-04-25T20:20:59;8.95;;;2.60;;
18503;SDS011;9381;54.244;10.074;2023-04-25T20:26:01;6.80;;;2.27;;
18503;SDS011;9381;54.244;10.074;2023-04-25T20:31:01;9.40;;;2.70;;
18503;SDS011;9381;54.244;10.074;2023-04-25T20:36:01;12.30;;;2.40;;
18503;SDS011;9381;54.244;10.074;2023-04-25T20:41:02;9.05;;;2.25;;
18503;SDS011;9381;54.244;10.074;2023-04-25T20:46:02;8.43;;;2.30;;
18503;SDS011;9381;54.244;10.074;2023-04-25T20:51:03;14.00;;;2.50;;
18503;SDS011;9381;54.244;10.074;2023-04-25T20:56:06;6.07;;;2.20;;
18503;SDS011;9381;54.244;10.074;2023-04-25T21:01:06;10.98;;;1.85;;
18503;SDS011;9381;54.244;10.074;2023-04-25T21:06:07;8.10;;;2.03;;
18503;SDS011;9381;54.244;10.074;2023-04-25T21:11:08;5.53;;;2.40;;
18503;SDS011;9381;54.244;10.074;2023-04-25T21:16:08;11.00;;;2.30;;
18503;SDS011;9381;54.244;10.074;2023-04-25T21:21:09;16.93;;;3.17;;
18503;SDS011;9381;54.244;10.074;2023-04-25T21:26:09;13.43;;;2.60;;
18503;SDS011;9381;54.244;10.074;2023-04-25T21:31:10;11.83;;;2.27;;
18503;SDS011;9381;54.244;10.074;2023-04-25T21:36:10;13.87;;;2.80;;
18503;SDS011;9381;54.244;10.074;2023-04-25T21:41:11;12.17;;;3.13;;
18503;SDS011;9381;54.244;10.074;2023-04-25T21:46:11;10.27;;;2.47;;
18503;SDS011;9381;54.244;10.074;2023-04-25T21:51:11;13.27;;;3.13;;
18503;SDS011;9381;54.244;10.074;2023-04-25T21:56:11;12.02;;;3.22;;
18503;SDS011;9381;54.244;10.074;2023-04-25T22:01:12;13.82;;;2.80;;
18503;SDS011;9381;54.244;10.074;2023-04-25T22:06:14;9.80;;;2.60;;
18503;SDS011;9381;54.244;10.074;2023-04-25T22:11:14;12.17;;;2.50;;
18503;SDS011;9381;54.244;10.074;2023-04-25T22:16:16;11.33;;;2.50;;
18503;SDS011;9381;54.244;10.074;2023-04-25T22:21:16;9.83;;;2.37;;
18503;SDS011;9381;54.244;10.074;2023-04-25T22:26:17;10.45;;;2.40;;
18503;SDS011;9381;54.244;10.074;2023-04-25T22:31:17;10.53;;;1.93;;
18503;SDS011;9381;54.244;10.074;2023-04-25T22:36:18;9.57;;;2.50;;
18503;SDS011;9381;54.244;10.074;2023-04-25T22:41:19;10.93;;;2.30;;
18503;SDS011;9381;54.244;10.074;2023-04-25T22:46:20;13.63;;;2.83;;
18503;SDS011;9381;54.244;10.074;2023-04-25T22:51:20;16.43;;;2.50;;
18503;SDS011;9381;54.244;10.074;2023-04-25T22:56:21;11.10;;;2.23;;
18503;SDS011;9381;54.244;10.074;2023-04-25T23:01:21;10.68;;;2.22;;
18503;SDS011;9381;54.244;10.074;2023-04-25T23:06:21;14.77;;;2.85;;
18503;SDS011;9381;54.244;10.074;2023-04-25T23:11:21;10.55;;;3.05;;
18503;SDS011;9381;54.244;10.074;2023-04-25T23:16:22;12.20;;;3.00;;
18503;SDS011;9381;54.244;10.074;2023-04-25T23:21:23;8.60;;;2.40;;
18503;SDS011;9381;54.244;10.074;2023-04-25T23:26:23;11.35;;;2.40;;
18503;SDS011;9381;54.244;10.074;2023-04-25T23:31:23;8.55;;;2.22;;
18503;SDS011;9381;54.244;10.074;2023-04-25T23:36:24;8.57;;;2.60;;
18503;SDS011;9381;54.244;10.074;2023-04-25T23:41:24;8.63;;;2.28;;
18503;SDS011;9381;54.244;10.074;2023-04-25T23:46:24;8.43;;;2.22;;
18503;SDS011;9381;54.244;10.074;2023-04-25T23:51:27;5.93;;;2.10;;
18503;SDS011;9381;54.244;10.074;2023-04-25T23:56:28;12.53;;;2.90;;
